This is the latest recevied weather packets stored in our database for station/object IZ4MEH-10. If no packets are shown the sender has not sent any weather packets the latest 1 day(s).
| Time | Temp. | Humidity | Pressure | Rain* | Wind** | Luminosity | Snow |
|---|---|---|---|---|---|---|---|
| 1778080412 | 24.44° C | 37% | 1005.3 hPa | - | - | - | - |
| 1778075007 | 23.89° C | 60% | 1005.8 hPa | - | - | - | - |
| 1778069603 | 22.78° C | 64% | 1006.5 hPa | - | - | - | - |
| 1778066000 | 21.67° C | 68% | 1007 hPa | - | - | - | - |
| 1778060596 | 17.78° C | 91% | 1007.2 hPa | - | - | - | - |
| 1778058795 | 20° C | 89% | 1007.3 hPa | - | - | - | - |
| 1778056994 | 16.67° C | 93% | 1007.4 hPa | - | - | - | - |
| 1778055193 | 16.11° C | 93% | 1007.4 hPa | - | - | - | - |
| 1778053392 | 16.67° C | 93% | 1007.4 hPa | - | - | - | - |
| 1778044385 | 14.44° C | 94% | 1008 hPa | - | - | - | - |
| 1778042584 | 14.44° C | 94% | 1008.3 hPa | - | - | - | - |
| 1778040783 | 14.44° C | 94% | 1008.6 hPa | - | - | - | - |
| 1778037180 | 14.44° C | 93% | 1008.5 hPa | - | - | - | - |
| 1778035379 | 14.44° C | 93% | 1008.2 hPa | - | - | - | - |
| 1778033578 | 14.44° C | 92% | 1008.7 hPa | - | - | - | - |
| 1778031777 | 14.44° C | 92% | 1008.7 hPa | - | - | - | - |
| 1778029975 | 14.44° C | 92% | 1009.2 hPa | - | - | - | - |
| 1778028174 | 14.44° C | 91% | 1009.5 hPa | - | - | - | - |
| 1778019168 | 15.56° C | 84% | 1010.5 hPa | - | - | - | - |
| 1778013765 | 15° C | 84% | 1011.2 hPa | - | - | - | - |
| 1778004758 | 17.22° C | 76% | 1010.2 hPa | - | - | - | - |
| 1777997552 | 20° C | 68% | 1010.1 hPa | - | - | - | - |
| 1777995750 | 20° C | 68% | 1010.2 hPa | - | - | - | - |
* Rain since midnight (hover to see other rain measurements)
** Current wind speed in m/s (hover to see current wind gust speed)